Terminal Aerodrome Forecast
Issued by NWS

Home | Current Version | Previous Version | Graphics & Text | Print | Product List | Glossary On
Versions: 1 2 3 4 5 6 7 8 9 10 11 12 13 14 15 16 17 18 19 20 21 22 23 24 25 26
000
FTUS43 KMPX 232100 AAB
TAFRNH
TAF AMD
KRNH 232151Z 2322/2418 31005KT 2SM BR OVC005
     FM232300 31007KT 6SM BR SCT015 OVC050
     FM240100 31009KT 5SM -SHRA BKN030 OVC050
     FM240500 31011KT 4SM -SHSNRA OVC020
     FM241000 31017G25KT P6SM OVC017=

USA.gov is the U.S. government's official web portal to all federal, state and local government web resources and services.